sensor_id;sensor_type;location;lat;lon;timestamp;temperature;humidity
32600;DHT22;19277;51.778;7.912;2023-04-25T00:01:55;21.20;72.10
32600;DHT22;19277;51.778;7.912;2023-04-25T00:04:22;21.20;72.10
32600;DHT22;19277;51.778;7.912;2023-04-25T00:06:47;21.20;72.20
32600;DHT22;19277;51.778;7.912;2023-04-25T00:09:13;21.20;72.10
32600;DHT22;19277;51.778;7.912;2023-04-25T00:11:40;21.20;72.10
32600;DHT22;19277;51.778;7.912;2023-04-25T00:14:06;21.20;72.10
32600;DHT22;19277;51.778;7.912;2023-04-25T00:16:32;21.10;72.00
32600;DHT22;19277;51.778;7.912;2023-04-25T00:18:59;21.10;72.00
32600;DHT22;19277;51.778;7.912;2023-04-25T00:21:25;21.10;71.90
32600;DHT22;19277;51.778;7.912;2023-04-25T00:23:52;21.10;71.80
32600;DHT22;19277;51.778;7.912;2023-04-25T00:26:18;21.10;71.80
32600;DHT22;19277;51.778;7.912;2023-04-25T00:28:43;21.10;71.70
32600;DHT22;19277;51.778;7.912;2023-04-25T00:31:09;21.10;71.90
32600;DHT22;19277;51.778;7.912;2023-04-25T00:33:35;21.10;72.30
32600;DHT22;19277;51.778;7.912;2023-04-25T00:36:01;21.10;72.20
32600;DHT22;19277;51.778;7.912;2023-04-25T00:38:27;21.10;72.20
32600;DHT22;19277;51.778;7.912;2023-04-25T00:40:52;21.20;72.20
32600;DHT22;19277;51.778;7.912;2023-04-25T00:43:18;21.20;72.20
32600;DHT22;19277;51.778;7.912;2023-04-25T00:45:44;21.20;72.10
32600;DHT22;19277;51.778;7.912;2023-04-25T00:48:14;21.20;72.10
32600;DHT22;19277;51.778;7.912;2023-04-25T00:50:39;21.20;72.10
32600;DHT22;19277;51.778;7.912;2023-04-25T00:53:05;21.20;72.20
32600;DHT22;19277;51.778;7.912;2023-04-25T00:55:31;21.20;72.20
32600;DHT22;19277;51.778;7.912;2023-04-25T00:57:57;21.20;72.10
32600;DHT22;19277;51.778;7.912;2023-04-25T01:00:23;21.20;72.20
32600;DHT22;19277;51.778;7.912;2023-04-25T01:02:49;21.20;72.20
32600;DHT22;19277;51.778;7.912;2023-04-25T01:05:15;21.20;72.10
32600;DHT22;19277;51.778;7.912;2023-04-25T01:07:41;21.20;72.20
32600;DHT22;19277;51.778;7.912;2023-04-25T01:10:07;21.20;72.20
32600;DHT22;19277;51.778;7.912;2023-04-25T01:12:33;21.30;72.10
32600;DHT22;19277;51.778;7.912;2023-04-25T01:14:59;21.20;72.00
32600;DHT22;19277;51.778;7.912;2023-04-25T01:17:24;21.30;72.10
32600;DHT22;19277;51.778;7.912;2023-04-25T01:19:50;21.30;72.00
32600;DHT22;19277;51.778;7.912;2023-04-25T01:22:16;21.20;72.00
32600;DHT22;19277;51.778;7.912;2023-04-25T01:24:42;21.30;72.00
32600;DHT22;19277;51.778;7.912;2023-04-25T01:27:09;21.20;71.90
32600;DHT22;19277;51.778;7.912;2023-04-25T01:29:37;21.20;72.00
32600;DHT22;19277;51.778;7.912;2023-04-25T01:32:02;21.20;72.00
32600;DHT22;19277;51.778;7.912;2023-04-25T01:34:28;21.20;72.50
32600;DHT22;19277;51.778;7.912;2023-04-25T01:36:54;21.20;72.00
32600;DHT22;19277;51.778;7.912;2023-04-25T01:39:21;21.20;72.00
32600;DHT22;19277;51.778;7.912;2023-04-25T01:41:47;21.20;71.90
32600;DHT22;19277;51.778;7.912;2023-04-25T01:44:13;21.20;72.10
32600;DHT22;19277;51.778;7.912;2023-04-25T01:46:39;21.30;72.00
32600;DHT22;19277;51.778;7.912;2023-04-25T01:49:05;21.20;72.50
32600;DHT22;19277;51.778;7.912;2023-04-25T01:51:30;21.30;72.00
32600;DHT22;19277;51.778;7.912;2023-04-25T01:53:57;21.20;72.50
32600;DHT22;19277;51.778;7.912;2023-04-25T01:56:22;21.20;72.00
32600;DHT22;19277;51.778;7.912;2023-04-25T01:58:49;21.30;72.00
32600;DHT22;19277;51.778;7.912;2023-04-25T02:01:14;21.30;72.00
32600;DHT22;19277;51.778;7.912;2023-04-25T02:03:40;21.30;72.10
32600;DHT22;19277;51.778;7.912;2023-04-25T02:06:05;21.30;72.10
32600;DHT22;19277;51.778;7.912;2023-04-25T02:08:31;21.20;72.00
32600;DHT22;19277;51.778;7.912;2023-04-25T02:10:57;21.20;72.10
32600;DHT22;19277;51.778;7.912;2023-04-25T02:13:23;21.20;72.10
32600;DHT22;19277;51.778;7.912;2023-04-25T02:15:48;21.20;72.10
32600;DHT22;19277;51.778;7.912;2023-04-25T02:18:14;21.20;72.20
32600;DHT22;19277;51.778;7.912;2023-04-25T02:20:41;21.20;72.20
32600;DHT22;19277;51.778;7.912;2023-04-25T02:23:07;21.20;72.30
32600;DHT22;19277;51.778;7.912;2023-04-25T02:25:33;21.20;72.30
32600;DHT22;19277;51.778;7.912;2023-04-25T02:27:58;21.20;72.20
32600;DHT22;19277;51.778;7.912;2023-04-25T02:30:24;21.20;72.20
32600;DHT22;19277;51.778;7.912;2023-04-25T02:32:49;21.20;72.20
32600;DHT22;19277;51.778;7.912;2023-04-25T02:35:15;21.20;72.20
32600;DHT22;19277;51.778;7.912;2023-04-25T02:37:41;21.20;72.20
32600;DHT22;19277;51.778;7.912;2023-04-25T02:40:07;21.20;72.20
32600;DHT22;19277;51.778;7.912;2023-04-25T02:42:34;21.20;72.20
32600;DHT22;19277;51.778;7.912;2023-04-25T02:44:59;21.20;72.30
32600;DHT22;19277;51.778;7.912;2023-04-25T02:47:25;21.20;72.30
32600;DHT22;19277;51.778;7.912;2023-04-25T02:49:50;21.20;72.30
32600;DHT22;19277;51.778;7.912;2023-04-25T02:52:16;21.20;72.40
32600;DHT22;19277;51.778;7.912;2023-04-25T02:54:42;21.20;72.20
32600;DHT22;19277;51.778;7.912;2023-04-25T02:57:07;21.20;72.20
32600;DHT22;19277;51.778;7.912;2023-04-25T02:59:34;21.20;72.10
32600;DHT22;19277;51.778;7.912;2023-04-25T03:01:59;21.20;72.10
32600;DHT22;19277;51.778;7.912;2023-04-25T03:04:25;21.20;72.00
32600;DHT22;19277;51.778;7.912;2023-04-25T03:06:51;21.20;72.00
32600;DHT22;19277;51.778;7.912;2023-04-25T03:09:17;21.20;71.90
32600;DHT22;19277;51.778;7.912;2023-04-25T03:11:44;21.20;72.10
32600;DHT22;19277;51.778;7.912;2023-04-25T03:14:10;21.20;72.30
32600;DHT22;19277;51.778;7.912;2023-04-25T03:16:35;21.20;72.50
32600;DHT22;19277;51.778;7.912;2023-04-25T03:19:02;21.20;72.50
32600;DHT22;19277;51.778;7.912;2023-04-25T03:21:28;21.20;73.30
32600;DHT22;19277;51.778;7.912;2023-04-25T03:23:53;21.20;72.80
32600;DHT22;19277;51.778;7.912;2023-04-25T03:26:19;21.20;72.70
32600;DHT22;19277;51.778;7.912;2023-04-25T03:28:44;21.20;72.50
32600;DHT22;19277;51.778;7.912;2023-04-25T03:31:10;21.20;72.40
32600;DHT22;19277;51.778;7.912;2023-04-25T03:33:35;21.20;72.70
32600;DHT22;19277;51.778;7.912;2023-04-25T03:36:01;21.20;72.60
32600;DHT22;19277;51.778;7.912;2023-04-25T03:38:27;21.20;72.60
32600;DHT22;19277;51.778;7.912;2023-04-25T03:40:54;21.20;72.70
32600;DHT22;19277;51.778;7.912;2023-04-25T03:43:19;21.20;72.70
32600;DHT22;19277;51.778;7.912;2023-04-25T03:45:45;21.10;72.70
32600;DHT22;19277;51.778;7.912;2023-04-25T03:48:11;21.20;72.70
32600;DHT22;19277;51.778;7.912;2023-04-25T03:50:37;21.20;72.70
32600;DHT22;19277;51.778;7.912;2023-04-25T03:53:02;21.20;72.60
32600;DHT22;19277;51.778;7.912;2023-04-25T03:55:28;21.20;72.60
32600;DHT22;19277;51.778;7.912;2023-04-25T03:57:53;21.20;72.70
32600;DHT22;19277;51.778;7.912;2023-04-25T04:00:19;21.20;72.50
32600;DHT22;19277;51.778;7.912;2023-04-25T04:02:44;21.20;72.40
32600;DHT22;19277;51.778;7.912;2023-04-25T04:05:10;21.20;72.30
32600;DHT22;19277;51.778;7.912;2023-04-25T04:07:36;21.30;72.30
32600;DHT22;19277;51.778;7.912;2023-04-25T04:10:07;21.30;72.40
32600;DHT22;19277;51.778;7.912;2023-04-25T04:12:33;21.30;72.20
32600;DHT22;19277;51.778;7.912;2023-04-25T04:14:58;21.30;72.30
32600;DHT22;19277;51.778;7.912;2023-04-25T04:17:24;21.30;72.30
32600;DHT22;19277;51.778;7.912;2023-04-25T04:19:50;21.30;72.30
32600;DHT22;19277;51.778;7.912;2023-04-25T04:22:16;21.30;72.30
32600;DHT22;19277;51.778;7.912;2023-04-25T04:24:41;21.30;72.30
32600;DHT22;19277;51.778;7.912;2023-04-25T04:27:09;21.40;72.40
32600;DHT22;19277;51.778;7.912;2023-04-25T04:29:35;21.40;72.80
32600;DHT22;19277;51.778;7.912;2023-04-25T04:32:02;21.40;72.40
32600;DHT22;19277;51.778;7.912;2023-04-25T04:34:28;21.40;72.30
32600;DHT22;19277;51.778;7.912;2023-04-25T04:36:54;21.40;72.40
32600;DHT22;19277;51.778;7.912;2023-04-25T04:39:20;21.40;72.30
32600;DHT22;19277;51.778;7.912;2023-04-25T04:41:46;21.40;72.40
32600;DHT22;19277;51.778;7.912;2023-04-25T04:44:12;21.40;72.40
32600;DHT22;19277;51.778;7.912;2023-04-25T04:46:37;21.40;72.40
32600;DHT22;19277;51.778;7.912;2023-04-25T04:49:06;21.50;72.40
32600;DHT22;19277;51.778;7.912;2023-04-25T04:51:31;21.50;72.30
32600;DHT22;19277;51.778;7.912;2023-04-25T04:53:57;21.50;72.20
32600;DHT22;19277;51.778;7.912;2023-04-25T04:56:24;21.50;72.20
32600;DHT22;19277;51.778;7.912;2023-04-25T04:58:50;21.50;72.20
32600;DHT22;19277;51.778;7.912;2023-04-25T05:01:16;21.60;72.20
32600;DHT22;19277;51.778;7.912;2023-04-25T05:03:42;21.60;72.20
32600;DHT22;19277;51.778;7.912;2023-04-25T05:06:07;21.60;72.20
32600;DHT22;19277;51.778;7.912;2023-04-25T05:08:34;21.60;72.10
32600;DHT22;19277;51.778;7.912;2023-04-25T05:11:00;21.60;72.10
32600;DHT22;19277;51.778;7.912;2023-04-25T05:13:25;21.70;72.20
32600;DHT22;19277;51.778;7.912;2023-04-25T05:15:51;21.70;72.10
32600;DHT22;19277;51.778;7.912;2023-04-25T05:18:16;21.70;72.10
32600;DHT22;19277;51.778;7.912;2023-04-25T05:20:42;21.70;72.00
32600;DHT22;19277;51.778;7.912;2023-04-25T05:23:07;21.70;71.90
32600;DHT22;19277;51.778;7.912;2023-04-25T05:25:33;21.70;72.40
32600;DHT22;19277;51.778;7.912;2023-04-25T05:27:58;21.80;71.90
32600;DHT22;19277;51.778;7.912;2023-04-25T05:30:24;21.80;71.90
32600;DHT22;19277;51.778;7.912;2023-04-25T05:32:50;21.80;71.80
32600;DHT22;19277;51.778;7.912;2023-04-25T05:35:16;21.90;71.70
32600;DHT22;19277;51.778;7.912;2023-04-25T05:37:41;21.90;71.60
32600;DHT22;19277;51.778;7.912;2023-04-25T05:40:08;22.00;71.60
32600;DHT22;19277;51.778;7.912;2023-04-25T05:42:34;22.00;71.40
32600;DHT22;19277;51.778;7.912;2023-04-25T05:45:00;22.10;71.40
32600;DHT22;19277;51.778;7.912;2023-04-25T05:47:26;22.10;71.30
32600;DHT22;19277;51.778;7.912;2023-04-25T05:49:52;22.20;71.20
32600;DHT22;19277;51.778;7.912;2023-04-25T05:52:17;22.20;71.10
32600;DHT22;19277;51.778;7.912;2023-04-25T05:54:43;22.30;71.10
32600;DHT22;19277;51.778;7.912;2023-04-25T05:57:08;22.30;71.00
32600;DHT22;19277;51.778;7.912;2023-04-25T05:59:34;22.30;71.00
32600;DHT22;19277;51.778;7.912;2023-04-25T06:01:59;22.40;71.10
32600;DHT22;19277;51.778;7.912;2023-04-25T06:04:26;22.40;70.80
32600;DHT22;19277;51.778;7.912;2023-04-25T06:06:51;22.50;70.70
32600;DHT22;19277;51.778;7.912;2023-04-25T06:09:17;22.50;70.70
32600;DHT22;19277;51.778;7.912;2023-04-25T06:11:42;22.60;70.80
32600;DHT22;19277;51.778;7.912;2023-04-25T06:14:08;22.60;70.70
32600;DHT22;19277;51.778;7.912;2023-04-25T06:16:33;22.70;70.70
32600;DHT22;19277;51.778;7.912;2023-04-25T06:18:59;22.70;70.60
32600;DHT22;19277;51.778;7.912;2023-04-25T06:21:24;22.70;70.50
32600;DHT22;19277;51.778;7.912;2023-04-25T06:23:51;22.80;70.60
32600;DHT22;19277;51.778;7.912;2023-04-25T06:26:16;22.80;71.40
32600;DHT22;19277;51.778;7.912;2023-04-25T06:28:42;22.80;71.00
32600;DHT22;19277;51.778;7.912;2023-04-25T06:31:07;22.80;71.00
32600;DHT22;19277;51.778;7.912;2023-04-25T06:33:33;22.90;71.20
32600;DHT22;19277;51.778;7.912;2023-04-25T06:35:58;22.90;70.90
32600;DHT22;19277;51.778;7.912;2023-04-25T06:38:24;22.90;70.70
32600;DHT22;19277;51.778;7.912;2023-04-25T06:40:50;22.90;70.30
32600;DHT22;19277;51.778;7.912;2023-04-25T06:43:15;23.00;70.10
32600;DHT22;19277;51.778;7.912;2023-04-25T06:45:41;23.00;69.80
32600;DHT22;19277;51.778;7.912;2023-04-25T06:48:07;23.00;69.60
32600;DHT22;19277;51.778;7.912;2023-04-25T06:50:33;23.00;69.50
32600;DHT22;19277;51.778;7.912;2023-04-25T06:52:59;23.00;69.30
32600;DHT22;19277;51.778;7.912;2023-04-25T06:55:26;23.00;69.20
32600;DHT22;19277;51.778;7.912;2023-04-25T06:57:52;23.10;69.10
32600;DHT22;19277;51.778;7.912;2023-04-25T07:00:18;23.10;69.00
32600;DHT22;19277;51.778;7.912;2023-04-25T07:02:44;23.10;68.90
32600;DHT22;19277;51.778;7.912;2023-04-25T07:05:10;23.10;68.80
32600;DHT22;19277;51.778;7.912;2023-04-25T07:07:35;23.10;68.60
32600;DHT22;19277;51.778;7.912;2023-04-25T07:10:01;23.10;68.50
32600;DHT22;19277;51.778;7.912;2023-04-25T07:12:26;23.10;68.40
32600;DHT22;19277;51.778;7.912;2023-04-25T07:14:52;23.10;68.30
32600;DHT22;19277;51.778;7.912;2023-04-25T07:17:17;23.10;68.30
32600;DHT22;19277;51.778;7.912;2023-04-25T07:19:43;23.20;68.20
32600;DHT22;19277;51.778;7.912;2023-04-25T07:22:08;23.20;68.10
32600;DHT22;19277;51.778;7.912;2023-04-25T07:24:34;23.20;67.90
32600;DHT22;19277;51.778;7.912;2023-04-25T07:27:00;23.30;67.70
32600;DHT22;19277;51.778;7.912;2023-04-25T07:29:26;23.40;67.50
32600;DHT22;19277;51.778;7.912;2023-04-25T07:31:52;23.50;67.30
32600;DHT22;19277;51.778;7.912;2023-04-25T07:34:18;23.50;67.10
32600;DHT22;19277;51.778;7.912;2023-04-25T07:36:43;23.50;67.00
32600;DHT22;19277;51.778;7.912;2023-04-25T07:39:10;23.50;66.90
32600;DHT22;19277;51.778;7.912;2023-04-25T07:41:36;23.50;66.90
32600;DHT22;19277;51.778;7.912;2023-04-25T07:44:01;23.50;66.90
32600;DHT22;19277;51.778;7.912;2023-04-25T07:46:27;23.50;66.90
32600;DHT22;19277;51.778;7.912;2023-04-25T07:48:53;23.50;66.90
32600;DHT22;19277;51.778;7.912;2023-04-25T07:51:18;23.50;66.90
32600;DHT22;19277;51.778;7.912;2023-04-25T07:53:45;23.40;67.00
32600;DHT22;19277;51.778;7.912;2023-04-25T07:56:11;23.40;67.10
32600;DHT22;19277;51.778;7.912;2023-04-25T07:58:37;23.40;67.00
32600;DHT22;19277;51.778;7.912;2023-04-25T08:01:02;23.40;67.00
32600;DHT22;19277;51.778;7.912;2023-04-25T08:03:28;23.40;66.90
32600;DHT22;19277;51.778;7.912;2023-04-25T08:05:53;23.50;66.90
32600;DHT22;19277;51.778;7.912;2023-04-25T08:08:19;23.50;66.80
32600;DHT22;19277;51.778;7.912;2023-04-25T08:10:45;23.50;66.70
32600;DHT22;19277;51.778;7.912;2023-04-25T08:13:10;23.60;66.60
32600;DHT22;19277;51.778;7.912;2023-04-25T08:15:36;23.60;66.40
32600;DHT22;19277;51.778;7.912;2023-04-25T08:18:01;23.60;66.20
32600;DHT22;19277;51.778;7.912;2023-04-25T08:20:27;23.70;66.20
32600;DHT22;19277;51.778;7.912;2023-04-25T08:22:53;23.70;66.20
32600;DHT22;19277;51.778;7.912;2023-04-25T08:25:19;23.70;66.10
32600;DHT22;19277;51.778;7.912;2023-04-25T08:27:44;23.70;66.10
32600;DHT22;19277;51.778;7.912;2023-04-25T08:30:10;23.70;66.10
32600;DHT22;19277;51.778;7.912;2023-04-25T08:32:36;23.70;66.10
32600;DHT22;19277;51.778;7.912;2023-04-25T08:35:04;23.60;66.20
32600;DHT22;19277;51.778;7.912;2023-04-25T08:37:30;23.60;66.10
32600;DHT22;19277;51.778;7.912;2023-04-25T08:39:55;23.60;66.00
32600;DHT22;19277;51.778;7.912;2023-04-25T08:42:21;23.60;66.00
32600;DHT22;19277;51.778;7.912;2023-04-25T08:44:48;23.60;66.00
32600;DHT22;19277;51.778;7.912;2023-04-25T08:47:14;23.60;66.10
32600;DHT22;19277;51.778;7.912;2023-04-25T08:49:45;23.60;66.10
32600;DHT22;19277;51.778;7.912;2023-04-25T08:52:13;23.60;66.10
32600;DHT22;19277;51.778;7.912;2023-04-25T08:54:42;23.60;66.00
32600;DHT22;19277;51.778;7.912;2023-04-25T08:57:09;23.60;65.90
32600;DHT22;19277;51.778;7.912;2023-04-25T08:59:35;23.60;65.80
32600;DHT22;19277;51.778;7.912;2023-04-25T09:02:03;23.60;65.70
32600;DHT22;19277;51.778;7.912;2023-04-25T09:04:31;23.60;66.10
32600;DHT22;19277;51.778;7.912;2023-04-25T09:06:56;23.60;65.60
32600;DHT22;19277;51.778;7.912;2023-04-25T09:09:23;23.60;65.60
32600;DHT22;19277;51.778;7.912;2023-04-25T09:11:49;23.60;65.50
32600;DHT22;19277;51.778;7.912;2023-04-25T09:14:22;23.60;65.50
32600;DHT22;19277;51.778;7.912;2023-04-25T09:19:24;23.10;46.70
32600;DHT22;19277;51.778;7.912;2023-04-25T09:21:51;20.60;48.80
32600;DHT22;19277;51.778;7.912;2023-04-25T09:24:39;18.90;51.90
32600;DHT22;19277;51.778;7.912;2023-04-25T09:27:07;17.50;51.60
32600;DHT22;19277;51.778;7.912;2023-04-25T09:29:36;16.80;53.40
32600;DHT22;19277;51.778;7.912;2023-04-25T09:32:22;16.50;56.40
32600;DHT22;19277;51.778;7.912;2023-04-25T09:37:26;15.80;55.10
32600;DHT22;19277;51.778;7.912;2023-04-25T09:39:59;15.40;55.90
32600;DHT22;19277;51.778;7.912;2023-04-25T09:42:27;15.50;56.30
32600;DHT22;19277;51.778;7.912;2023-04-25T09:44:55;15.20;53.90
32600;DHT22;19277;51.778;7.912;2023-04-25T09:47:23;15.00;57.10
32600;DHT22;19277;51.778;7.912;2023-04-25T09:49:50;14.90;55.20
32600;DHT22;19277;51.778;7.912;2023-04-25T09:52:17;15.00;58.50
32600;DHT22;19277;51.778;7.912;2023-04-25T09:54:44;15.10;56.30
32600;DHT22;19277;51.778;7.912;2023-04-25T09:57:12;15.20;58.30
32600;DHT22;19277;51.778;7.912;2023-04-25T10:00:04;15.20;58.00
32600;DHT22;19277;51.778;7.912;2023-04-25T10:02:34;15.30;57.30
32600;DHT22;19277;51.778;7.912;2023-04-25T10:05:02;15.20;56.00
32600;DHT22;19277;51.778;7.912;2023-04-25T10:07:31;14.90;55.80
32600;DHT22;19277;51.778;7.912;2023-04-25T10:10:00;15.10;57.30
32600;DHT22;19277;51.778;7.912;2023-04-25T10:12:28;15.10;56.70
32600;DHT22;19277;51.778;7.912;2023-04-25T10:14:55;15.10;55.40
32600;DHT22;19277;51.778;7.912;2023-04-25T10:17:21;15.10;56.00
32600;DHT22;19277;51.778;7.912;2023-04-25T10:19:50;15.00;55.30
32600;DHT22;19277;51.778;7.912;2023-04-25T10:22:37;14.90;54.60
32600;DHT22;19277;51.778;7.912;2023-04-25T10:25:04;14.80;56.00
32600;DHT22;19277;51.778;7.912;2023-04-25T10:27:30;15.00;56.50
32600;DHT22;19277;51.778;7.912;2023-04-25T10:30:13;15.20;55.70
32600;DHT22;19277;51.778;7.912;2023-04-25T10:32:42;15.40;58.90
32600;DHT22;19277;51.778;7.912;2023-04-25T10:35:11;16.20;61.50
32600;DHT22;19277;51.778;7.912;2023-04-25T10:37:37;17.00;61.40
32600;DHT22;19277;51.778;7.912;2023-04-25T10:40:10;17.80;60.70
32600;DHT22;19277;51.778;7.912;2023-04-25T10:42:35;18.50;59.80
32600;DHT22;19277;51.778;7.912;2023-04-25T10:45:04;19.00;59.30
32600;DHT22;19277;51.778;7.912;2023-04-25T10:47:38;19.40;58.90
32600;DHT22;19277;51.778;7.912;2023-04-25T10:50:08;19.80;58.60
32600;DHT22;19277;51.778;7.912;2023-04-25T10:52:34;20.20;58.40
32600;DHT22;19277;51.778;7.912;2023-04-25T10:55:03;20.40;58.20
32600;DHT22;19277;51.778;7.912;2023-04-25T10:57:42;20.70;58.00
32600;DHT22;19277;51.778;7.912;2023-04-25T11:00:16;20.90;58.00
32600;DHT22;19277;51.778;7.912;2023-04-25T11:02:44;21.10;57.90
32600;DHT22;19277;51.778;7.912;2023-04-25T11:07:52;21.40;57.90
32600;DHT22;19277;51.778;7.912;2023-04-25T11:10:18;21.50;57.80
32600;DHT22;19277;51.778;7.912;2023-04-25T11:12:45;21.60;57.80
32600;DHT22;19277;51.778;7.912;2023-04-25T11:15:12;21.70;57.90
32600;DHT22;19277;51.778;7.912;2023-04-25T11:17:38;21.70;58.20
32600;DHT22;19277;51.778;7.912;2023-04-25T11:20:06;21.80;58.30
32600;DHT22;19277;51.778;7.912;2023-04-25T11:22:34;21.80;58.30
32600;DHT22;19277;51.778;7.912;2023-04-25T11:25:05;21.90;58.50
32600;DHT22;19277;51.778;7.912;2023-04-25T11:27:31;21.90;58.60
32600;DHT22;19277;51.778;7.912;2023-04-25T11:29:57;21.90;58.70
32600;DHT22;19277;51.778;7.912;2023-04-25T11:32:23;22.00;58.80
32600;DHT22;19277;51.778;7.912;2023-04-25T11:34:48;22.00;58.90
32600;DHT22;19277;51.778;7.912;2023-04-25T11:37:15;22.00;59.00
32600;DHT22;19277;51.778;7.912;2023-04-25T11:39:44;22.00;59.10
32600;DHT22;19277;51.778;7.912;2023-04-25T11:42:11;22.00;59.20
32600;DHT22;19277;51.778;7.912;2023-04-25T11:44:38;22.10;59.20
32600;DHT22;19277;51.778;7.912;2023-04-25T11:47:05;22.20;59.30
32600;DHT22;19277;51.778;7.912;2023-04-25T11:49:31;22.20;59.30
32600;DHT22;19277;51.778;7.912;2023-04-25T11:51:57;22.30;59.20
32600;DHT22;19277;51.778;7.912;2023-04-25T11:54:23;22.30;59.30
32600;DHT22;19277;51.778;7.912;2023-04-25T11:56:48;22.40;59.30
32600;DHT22;19277;51.778;7.912;2023-04-25T11:59:14;22.40;59.30
32600;DHT22;19277;51.778;7.912;2023-04-25T12:01:49;22.40;59.50
32600;DHT22;19277;51.778;7.912;2023-04-25T12:04:17;22.40;59.60
32600;DHT22;19277;51.778;7.912;2023-04-25T12:06:44;22.30;59.70
32600;DHT22;19277;51.778;7.912;2023-04-25T12:09:13;22.20;59.90
32600;DHT22;19277;51.778;7.912;2023-04-25T12:11:42;22.10;60.00
32600;DHT22;19277;51.778;7.912;2023-04-25T12:14:12;22.10;60.30
32600;DHT22;19277;51.778;7.912;2023-04-25T12:16:48;22.00;60.40
32600;DHT22;19277;51.778;7.912;2023-04-25T12:19:15;22.10;60.50
32600;DHT22;19277;51.778;7.912;2023-04-25T12:21:41;22.10;60.30
32600;DHT22;19277;51.778;7.912;2023-04-25T12:24:17;22.10;60.40
32600;DHT22;19277;51.778;7.912;2023-04-25T12:27:03;22.20;60.40
32600;DHT22;19277;51.778;7.912;2023-04-25T12:29:32;22.20;60.60
32600;DHT22;19277;51.778;7.912;2023-04-25T12:31:58;22.30;60.80
32600;DHT22;19277;51.778;7.912;2023-04-25T12:34:25;22.30;60.80
32600;DHT22;19277;51.778;7.912;2023-04-25T12:36:52;22.30;60.90
32600;DHT22;19277;51.778;7.912;2023-04-25T12:39:19;22.30;61.10
32600;DHT22;19277;51.778;7.912;2023-04-25T12:41:45;22.30;61.30
32600;DHT22;19277;51.778;7.912;2023-04-25T12:44:12;22.30;61.40
32600;DHT22;19277;51.778;7.912;2023-04-25T12:46:38;22.20;61.50
32600;DHT22;19277;51.778;7.912;2023-04-25T12:49:04;22.20;61.70
32600;DHT22;19277;51.778;7.912;2023-04-25T12:51:31;22.20;61.70
32600;DHT22;19277;51.778;7.912;2023-04-25T12:53:58;22.30;61.90
32600;DHT22;19277;51.778;7.912;2023-04-25T12:56:25;22.30;62.00
32600;DHT22;19277;51.778;7.912;2023-04-25T12:58:51;22.20;62.00
32600;DHT22;19277;51.778;7.912;2023-04-25T13:01:17;22.30;62.30
32600;DHT22;19277;51.778;7.912;2023-04-25T13:03:43;22.30;62.20
32600;DHT22;19277;51.778;7.912;2023-04-25T13:06:08;22.30;62.20
32600;DHT22;19277;51.778;7.912;2023-04-25T13:08:34;22.30;62.20
32600;DHT22;19277;51.778;7.912;2023-04-25T13:11:02;22.40;62.20
32600;DHT22;19277;51.778;7.912;2023-04-25T13:13:28;22.40;62.20
32600;DHT22;19277;51.778;7.912;2023-04-25T13:15:53;22.50;62.20
32600;DHT22;19277;51.778;7.912;2023-04-25T13:18:19;22.50;62.20
32600;DHT22;19277;51.778;7.912;2023-04-25T13:20:45;22.60;62.20
32600;DHT22;19277;51.778;7.912;2023-04-25T13:23:11;22.60;62.20
32600;DHT22;19277;51.778;7.912;2023-04-25T13:25:37;22.60;62.20
32600;DHT22;19277;51.778;7.912;2023-04-25T13:28:03;22.60;62.20
32600;DHT22;19277;51.778;7.912;2023-04-25T13:30:28;22.60;62.20
32600;DHT22;19277;51.778;7.912;2023-04-25T13:32:54;22.70;62.30
32600;DHT22;19277;51.778;7.912;2023-04-25T13:35:22;22.70;62.40
32600;DHT22;19277;51.778;7.912;2023-04-25T13:37:48;22.70;62.30
32600;DHT22;19277;51.778;7.912;2023-04-25T13:40:13;22.80;62.20
32600;DHT22;19277;51.778;7.912;2023-04-25T13:42:39;22.80;62.00
32600;DHT22;19277;51.778;7.912;2023-04-25T13:45:06;22.80;61.90
32600;DHT22;19277;51.778;7.912;2023-04-25T13:47:31;22.90;61.90
32600;DHT22;19277;51.778;7.912;2023-04-25T13:49:57;22.90;61.90
32600;DHT22;19277;51.778;7.912;2023-04-25T13:52:23;22.90;61.90
32600;DHT22;19277;51.778;7.912;2023-04-25T13:54:51;22.90;62.00
32600;DHT22;19277;51.778;7.912;2023-04-25T13:57:17;22.80;62.10
32600;DHT22;19277;51.778;7.912;2023-04-25T13:59:43;22.80;62.30
32600;DHT22;19277;51.778;7.912;2023-04-25T14:02:08;22.80;62.50
32600;DHT22;19277;51.778;7.912;2023-04-25T14:04:34;22.70;62.70
32600;DHT22;19277;51.778;7.912;2023-04-25T14:07:00;22.80;62.90
32600;DHT22;19277;51.778;7.912;2023-04-25T14:09:26;22.80;63.20
32600;DHT22;19277;51.778;7.912;2023-04-25T14:11:52;22.70;63.20
32600;DHT22;19277;51.778;7.912;2023-04-25T14:14:19;22.70;63.40
32600;DHT22;19277;51.778;7.912;2023-04-25T14:16:45;22.70;63.50
32600;DHT22;19277;51.778;7.912;2023-04-25T14:19:13;22.70;63.70
32600;DHT22;19277;51.778;7.912;2023-04-25T14:21:39;22.70;63.70
32600;DHT22;19277;51.778;7.912;2023-04-25T14:24:05;22.70;63.80
32600;DHT22;19277;51.778;7.912;2023-04-25T14:26:30;22.70;63.90
32600;DHT22;19277;51.778;7.912;2023-04-25T14:28:56;22.70;63.90
32600;DHT22;19277;51.778;7.912;2023-04-25T14:31:22;22.70;63.90
32600;DHT22;19277;51.778;7.912;2023-04-25T14:33:47;22.70;63.90
32600;DHT22;19277;51.778;7.912;2023-04-25T14:36:13;22.70;64.00
32600;DHT22;19277;51.778;7.912;2023-04-25T14:38:39;22.70;64.00
32600;DHT22;19277;51.778;7.912;2023-04-25T14:41:05;22.70;64.10
32600;DHT22;19277;51.778;7.912;2023-04-25T14:43:31;22.70;64.20
32600;DHT22;19277;51.778;7.912;2023-04-25T14:45:56;22.70;64.20
32600;DHT22;19277;51.778;7.912;2023-04-25T14:48:22;22.60;64.50
32600;DHT22;19277;51.778;7.912;2023-04-25T14:50:48;22.60;64.70
32600;DHT22;19277;51.778;7.912;2023-04-25T14:53:14;22.70;64.80
32600;DHT22;19277;51.778;7.912;2023-04-25T14:55:40;22.70;64.90
32600;DHT22;19277;51.778;7.912;2023-04-25T14:58:06;22.70;64.80
32600;DHT22;19277;51.778;7.912;2023-04-25T15:00:32;22.70;64.80
32600;DHT22;19277;51.778;7.912;2023-04-25T15:02:58;22.80;64.80
32600;DHT22;19277;51.778;7.912;2023-04-25T15:05:24;22.80;64.70
32600;DHT22;19277;51.778;7.912;2023-04-25T15:07:51;22.80;64.80
32600;DHT22;19277;51.778;7.912;2023-04-25T15:10:17;22.80;64.80
32600;DHT22;19277;51.778;7.912;2023-04-25T15:12:43;22.80;64.80
32600;DHT22;19277;51.778;7.912;2023-04-25T15:15:10;22.80;64.80
32600;DHT22;19277;51.778;7.912;2023-04-25T15:17:40;22.80;64.80
32600;DHT22;19277;51.778;7.912;2023-04-25T15:20:06;22.90;64.80
32600;DHT22;19277;51.778;7.912;2023-04-25T15:22:32;22.90;64.80
32600;DHT22;19277;51.778;7.912;2023-04-25T15:24:58;22.90;64.80
32600;DHT22;19277;51.778;7.912;2023-04-25T15:27:24;23.00;64.80
32600;DHT22;19277;51.778;7.912;2023-04-25T15:29:49;23.00;64.90
32600;DHT22;19277;51.778;7.912;2023-04-25T15:32:18;23.00;64.90
32600;DHT22;19277;51.778;7.912;2023-04-25T15:34:44;23.00;64.90